createdAt,value
2019-05-07T00:01:02.905Z,78.20
2019-05-07T00:03:32.913Z,78.40
2019-05-07T00:06:02.920Z,77.00
2019-05-07T00:08:32.464Z,76.90
2019-05-07T00:11:02.415Z,76.50
2019-05-07T00:13:33.344Z,77.00
2019-05-07T00:16:02.785Z,76.60
2019-05-07T00:18:32.410Z,74.80
2019-05-07T00:21:03.541Z,76.10
2019-05-07T00:23:32.982Z,77.10
2019-05-07T00:26:03.010Z,77.00
2019-05-07T00:28:32.613Z,76.60
2019-05-07T00:31:02.836Z,76.80
2019-05-07T00:33:33.785Z,76.70
2019-05-07T00:36:08.127Z,77.00
2019-05-07T00:38:45.142Z,77.00
2019-05-07T00:41:19.279Z,77.20
2019-05-07T00:43:52.401Z,76.70
2019-05-07T00:46:23.191Z,76.70
2019-05-07T00:48:52.839Z,77.20
2019-05-07T00:51:23.975Z,76.90
2019-05-07T00:53:53.499Z,78.10
2019-05-07T00:56:23.025Z,77.70
2019-05-07T00:58:52.905Z,77.60
2019-05-07T01:01:22.844Z,78.30
2019-05-07T01:03:53.350Z,77.50
2019-05-07T01:06:26.377Z,79.50
2019-05-07T01:08:54.329Z,77.50
2019-05-07T01:11:23.663Z,78.30
2019-05-07T01:13:53.087Z,78.50
2019-05-07T01:16:22.454Z,79.10
2019-05-07T01:18:53.795Z,80.50
2019-05-07T01:21:22.918Z,79.60
2019-05-07T01:23:52.468Z,79.60
2019-05-07T01:26:22.126Z,80.20
2019-05-07T01:29:02.854Z,80.50
2019-05-07T01:31:34.822Z,81.20
2019-05-07T01:34:22.949Z,80.40
2019-05-07T01:36:52.432Z,79.90
2019-05-07T01:39:23.210Z,79.90
2019-05-07T01:41:52.743Z,80.90
2019-05-07T01:44:22.255Z,81.50
2019-05-07T01:46:52.900Z,81.80
2019-05-07T01:49:24.097Z,81.60
2019-05-07T01:51:53.627Z,81.40
2019-05-07T01:54:23.811Z,80.80
2019-05-07T01:56:53.417Z,79.90
2019-05-07T01:59:22.762Z,81.30
2019-05-07T02:01:53.772Z,81.50
2019-05-07T02:04:24.753Z,81.60
2019-05-07T02:07:04.986Z,82.30
2019-05-07T02:09:52.219Z,82.40
2019-05-07T02:12:29.103Z,82.50
2019-05-07T02:14:58.455Z,82.00
2019-05-07T02:17:27.879Z,82.00
2019-05-07T02:19:57.238Z,82.30
2019-05-07T02:22:26.586Z,82.40
2019-05-07T02:24:55.943Z,83.10
2019-05-07T02:27:25.284Z,83.30
2019-05-07T02:29:54.647Z,83.30
2019-05-07T02:32:24.334Z,82.60
2019-05-07T02:34:54.693Z,83.00
2019-05-07T02:37:30.899Z,83.20
2019-05-07T02:40:16.607Z,82.70
2019-05-07T02:42:46.187Z,82.90
2019-05-07T02:45:33.495Z,83.10
2019-05-07T02:48:03.557Z,83.20
2019-05-07T02:50:53.907Z,83.10
2019-05-07T02:53:25.204Z,83.70
2019-05-07T02:55:56.265Z,83.60
2019-05-07T02:58:25.695Z,85.00
2019-05-07T03:00:55.233Z,84.30
2019-05-07T03:03:24.946Z,84.00
2019-05-07T03:05:54.790Z,83.80
2019-05-07T03:08:27.397Z,84.50
2019-05-07T03:10:55.335Z,84.80
2019-05-07T03:13:24.671Z,85.20
2019-05-07T03:15:54.249Z,84.90
2019-05-07T03:18:24.441Z,84.90
2019-05-07T03:21:12.543Z,84.70
2019-05-07T03:23:45.556Z,84.50
2019-05-07T03:26:16.543Z,84.60
2019-05-07T03:28:53.413Z,84.50
2019-05-07T03:31:26.181Z,84.50
2019-05-07T03:34:06.373Z,85.20
2019-05-07T03:36:48.430Z,85.00
2019-05-07T03:39:17.380Z,85.20
2019-05-07T03:41:46.735Z,85.50
2019-05-07T03:44:34.051Z,85.50
2019-05-07T03:47:17.427Z,86.20
2019-05-07T03:49:47.471Z,87.30
2019-05-07T03:52:16.837Z,86.60
2019-05-07T03:54:46.188Z,86.80
2019-05-07T03:57:16.066Z,86.90
2019-05-07T03:59:45.665Z,87.40
2019-05-07T04:02:15.032Z,87.50
2019-05-07T04:04:44.595Z,87.60
2019-05-07T04:07:14.213Z,86.50
2019-05-07T04:09:43.948Z,87.70
2019-05-07T04:12:13.528Z,87.10
2019-05-07T04:14:43.366Z,87.40
2019-05-07T04:17:21.132Z,86.60
2019-05-07T04:19:44.287Z,87.40
2019-05-07T04:22:14.331Z,87.10
2019-05-07T04:24:45.310Z,86.60
2019-05-07T04:27:19.415Z,86.60
2019-05-07T04:29:48.936Z,87.00
2019-05-07T04:32:19.961Z,87.20
2019-05-07T04:35:07.572Z,87.00
2019-05-07T04:37:36.936Z,87.50
2019-05-07T04:40:06.528Z,88.30
2019-05-07T04:42:35.919Z,88.10
2019-05-07T04:45:07.168Z,88.00
2019-05-07T04:47:42.933Z,88.10
2019-05-07T04:50:13.648Z,87.50
2019-05-07T04:52:43.615Z,87.00
2019-05-07T04:55:13.986Z,87.30
2019-05-07T04:57:43.982Z,87.60
2019-05-07T05:00:14.387Z,88.10
2019-05-07T05:03:03.157Z,86.60
2019-05-07T05:05:33.013Z,86.40
2019-05-07T05:08:03.923Z,86.20
2019-05-07T05:10:33.711Z,85.40
2019-05-07T05:13:03.446Z,84.50
2019-05-07T05:15:32.866Z,83.90
2019-05-07T05:18:02.784Z,82.60
2019-05-07T05:20:42.974Z,82.10
2019-05-07T05:23:16.675Z,81.60
2019-05-07T05:25:46.027Z,82.40
2019-05-07T05:28:15.572Z,82.00
2019-05-07T05:30:46.643Z,83.20
2019-05-07T05:33:15.994Z,83.80
2019-05-07T05:35:45.431Z,83.40
2019-05-07T05:38:14.859Z,83.20
2019-05-07T05:40:44.604Z,82.70
2019-05-07T05:43:18.254Z,83.00
2019-05-07T05:45:49.280Z,82.30
2019-05-07T05:48:18.622Z,82.60
2019-05-07T05:50:53.611Z,82.20
2019-05-07T05:53:39.932Z,81.80
2019-05-07T05:56:13.587Z,81.30
2019-05-07T05:59:02.933Z,81.50
2019-05-07T06:01:52.105Z,81.70
2019-05-07T06:04:23.325Z,81.00
2019-05-07T06:07:08.768Z,80.90
2019-05-07T06:09:38.499Z,81.50
2019-05-07T06:12:24.935Z,80.80
2019-05-07T06:15:01.989Z,80.70
2019-05-07T06:17:32.983Z,80.00
2019-05-07T06:20:22.592Z,79.70
2019-05-07T06:23:09.837Z,79.60
2019-05-07T06:25:39.832Z,79.50
2019-05-07T06:28:09.212Z,79.70
2019-05-07T06:30:38.590Z,79.20
2019-05-07T06:33:07.949Z,78.70
2019-05-07T06:35:37.303Z,78.80
2019-05-07T06:38:08.337Z,78.20
2019-05-07T06:40:42.448Z,78.30
2019-05-07T06:43:16.420Z,77.80
2019-05-07T06:45:51.891Z,77.70
2019-05-07T06:48:34.642Z,77.20
2019-05-07T06:50:58.998Z,77.50
2019-05-07T06:53:30.308Z,75.90
2019-05-07T06:56:02.865Z,76.60
2019-05-07T06:58:42.931Z,75.70
2019-05-07T07:01:23.003Z,74.40
2019-05-07T07:04:03.143Z,74.80
2019-05-07T07:06:46.000Z,73.80
2019-05-07T07:09:33.671Z,71.60
2019-05-07T07:12:04.872Z,73.20
2019-05-07T07:14:34.379Z,72.80
2019-05-07T07:17:04.269Z,73.70
2019-05-07T07:19:36.062Z,73.30
2019-05-07T07:22:05.074Z,73.80
2019-05-07T07:24:34.479Z,72.10
2019-05-07T07:27:03.971Z,71.00
2019-05-07T07:29:34.973Z,72.10
2019-05-07T07:32:06.228Z,72.10
2019-05-07T07:34:37.304Z,70.20
2019-05-07T07:37:15.854Z,72.70
2019-05-07T07:39:45.471Z,71.90
2019-05-07T07:42:14.876Z,71.80
2019-05-07T07:44:44.424Z,71.70
2019-05-07T07:47:13.807Z,72.40
2019-05-07T07:49:43.340Z,72.20
2019-05-07T07:52:12.853Z,72.20
2019-05-07T07:54:42.846Z,72.10
2019-05-07T07:57:14.226Z,73.30
2019-05-07T07:59:45.246Z,71.60
2019-05-07T08:02:18.980Z,71.90
2019-05-07T08:04:48.343Z,70.00
2019-05-07T08:07:17.731Z,67.70
2019-05-07T08:09:47.095Z,67.60
2019-05-07T08:12:16.527Z,69.10
2019-05-07T08:14:45.943Z,67.80
2019-05-07T08:17:15.312Z,68.30
2019-05-07T08:19:45.086Z,67.10
2019-05-07T08:22:14.533Z,67.60
2019-05-07T08:24:44.074Z,70.50
2019-05-07T08:27:15.318Z,70.70
2019-05-07T08:29:44.486Z,68.90
2019-05-07T08:32:27.806Z,67.60
2019-05-07T08:35:02.347Z,67.40
2019-05-07T08:37:32.226Z,67.00
2019-05-07T08:40:03.055Z,66.90
2019-05-07T08:42:32.800Z,67.10
2019-05-07T08:45:24.641Z,65.70
2019-05-07T08:47:53.139Z,65.00
2019-05-07T08:50:22.520Z,64.40
2019-05-07T08:52:52.227Z,67.30
2019-05-07T08:55:21.887Z,66.20
2019-05-07T08:57:52.465Z,63.20
2019-05-07T09:00:23.404Z,60.00
2019-05-07T09:02:52.962Z,60.90
2019-05-07T09:05:22.411Z,62.00
2019-05-07T09:07:51.857Z,65.20
2019-05-07T09:10:21.851Z,63.70
2019-05-07T09:12:52.581Z,63.70
2019-05-07T09:15:22.720Z,63.50
2019-05-07T09:17:52.711Z,62.00
2019-05-07T09:20:22.921Z,62.00
2019-05-07T09:22:52.456Z,62.40
2019-05-07T09:25:22.386Z,63.00
2019-05-07T09:27:53.557Z,65.10
2019-05-07T09:30:28.497Z,67.30
2019-05-07T09:33:05.830Z,62.10
2019-05-07T09:38:34.303Z,65.80
2019-05-07T09:41:03.807Z,63.70
2019-05-07T09:43:33.251Z,62.30
2019-05-07T09:46:02.828Z,59.50
2019-05-07T09:48:33.790Z,58.30
2019-05-07T09:51:03.597Z,59.80
2019-05-07T09:53:32.975Z,59.90
2019-05-07T09:56:02.407Z,59.80
2019-05-07T09:58:36.532Z,59.80
2019-05-07T10:01:03.047Z,60.00
2019-05-07T10:03:32.605Z,59.10
2019-05-07T10:06:02.462Z,59.40
2019-05-07T10:08:33.065Z,59.10
2019-05-07T10:11:04.192Z,58.90
2019-05-07T10:13:35.324Z,59.20
2019-05-07T10:16:07.580Z,59.10
2019-05-07T10:18:36.268Z,57.30
2019-05-07T10:21:05.756Z,56.30
2019-05-07T10:23:35.470Z,58.20
2019-05-07T10:26:05.151Z,58.30
2019-05-07T10:28:34.643Z,55.50
2019-05-07T10:31:04.185Z,57.60
2019-05-07T10:33:33.872Z,55.40
2019-05-07T10:36:03.292Z,54.20
2019-05-07T10:38:32.675Z,56.30
2019-05-07T10:41:03.035Z,52.90
2019-05-07T10:43:32.846Z,52.10
2019-05-07T10:46:22.378Z,54.00
2019-05-07T10:48:53.519Z,52.30
2019-05-07T10:51:22.995Z,52.30
2019-05-07T10:53:52.516Z,54.60
2019-05-07T10:56:22.332Z,50.60
2019-05-07T10:58:52.342Z,51.70
2019-05-07T11:01:26.191Z,50.80
2019-05-07T11:03:55.621Z,52.40
2019-05-07T11:06:25.107Z,54.10
2019-05-07T11:08:54.470Z,53.70
2019-05-07T11:11:23.882Z,54.20
2019-05-07T11:13:55.810Z,53.20
2019-05-07T11:16:25.994Z,52.40
2019-05-07T11:18:55.498Z,52.60
2019-05-07T11:21:32.994Z,51.90
2019-05-07T11:24:03.241Z,52.80
2019-05-07T11:26:33.164Z,53.00
2019-05-07T11:29:02.597Z,51.60
2019-05-07T11:31:33.087Z,51.70
2019-05-07T11:34:03.118Z,53.70
2019-05-07T11:36:34.559Z,53.70
2019-05-07T11:39:06.522Z,53.30
2019-05-07T11:41:42.252Z,55.40
2019-05-07T11:44:13.230Z,53.20
2019-05-07T11:47:02.979Z,53.40
2019-05-07T11:49:38.934Z,51.50
2019-05-07T11:52:09.950Z,52.80
2019-05-07T11:54:39.298Z,53.60
2019-05-07T11:57:08.658Z,52.40
2019-05-07T11:59:38.171Z,54.60
2019-05-07T12:02:07.688Z,52.70
2019-05-07T12:04:37.075Z,54.20
2019-05-07T12:07:06.498Z,51.30
2019-05-07T12:09:36.000Z,51.50
2019-05-07T12:12:05.483Z,50.50
2019-05-07T12:14:35.122Z,50.60
2019-05-07T12:17:04.743Z,52.40
2019-05-07T12:19:34.208Z,50.40
2019-05-07T12:22:04.610Z,50.80
2019-05-07T12:24:33.978Z,49.00
2019-05-07T12:27:03.674Z,49.00
2019-05-07T12:29:33.040Z,49.40
2019-05-07T12:32:06.764Z,49.50
2019-05-07T12:34:37.735Z,49.10
2019-05-07T12:37:07.235Z,49.70
2019-05-07T12:39:36.574Z,49.00
2019-05-07T12:42:06.000Z,48.60
2019-05-07T12:44:35.611Z,49.60
2019-05-07T12:47:05.695Z,50.00
2019-05-07T12:49:35.110Z,50.20
2019-05-07T12:52:06.397Z,49.70
2019-05-07T12:54:41.922Z,49.20
2019-05-07T12:57:11.820Z,48.60
2019-05-07T12:59:42.578Z,49.90
2019-05-07T13:02:26.996Z,50.00
2019-05-07T13:04:47.255Z,49.70
2019-05-07T13:07:24.167Z,48.40
2019-05-07T13:09:54.356Z,47.30
2019-05-07T13:12:23.815Z,48.30
2019-05-07T13:14:53.242Z,50.30
2019-05-07T13:17:22.615Z,49.40
2019-05-07T13:19:52.600Z,47.10
2019-05-07T13:22:22.227Z,47.10
2019-05-07T13:24:52.888Z,48.20
2019-05-07T13:27:22.610Z,50.60
2019-05-07T13:29:53.104Z,49.80
2019-05-07T13:32:24.083Z,49.10
2019-05-07T13:34:54.309Z,47.50
2019-05-07T13:37:28.379Z,49.60
2019-05-07T13:40:00.016Z,48.10
2019-05-07T13:42:47.498Z,48.90
2019-05-07T13:45:24.945Z,47.50
2019-05-07T13:47:56.479Z,46.80
2019-05-07T13:50:26.240Z,49.80
2019-05-07T13:52:55.686Z,50.90
2019-05-07T13:55:25.145Z,48.30
2019-05-07T13:57:54.562Z,49.10
2019-05-07T14:00:28.823Z,49.80
2019-05-07T14:02:58.545Z,50.30
2019-05-07T14:05:27.915Z,46.10
2019-05-07T14:07:57.403Z,47.10
2019-05-07T14:10:26.896Z,48.40
2019-05-07T14:13:07.586Z,47.50
2019-05-07T14:15:27.724Z,47.80
2019-05-07T14:17:57.138Z,47.20
2019-05-07T14:20:26.523Z,47.20
2019-05-07T14:22:56.149Z,47.30
2019-05-07T14:25:25.667Z,48.20
2019-05-07T14:27:55.098Z,47.50
2019-05-07T14:30:24.694Z,47.50
2019-05-07T14:33:12.316Z,47.80
2019-05-07T14:35:55.564Z,48.70
2019-05-07T14:38:26.607Z,46.80
2019-05-07T14:40:56.270Z,47.20
2019-05-07T14:43:27.255Z,46.50
2019-05-07T14:45:56.774Z,47.50
2019-05-07T14:48:26.179Z,47.20
2019-05-07T14:50:55.538Z,45.90
2019-05-07T14:53:24.959Z,48.00
2019-05-07T14:55:54.336Z,48.40
2019-05-07T14:58:23.845Z,47.00
2019-05-07T15:00:53.362Z,46.50
2019-05-07T15:03:23.037Z,46.30
2019-05-07T15:05:52.729Z,46.30
2019-05-07T15:08:22.339Z,46.50
2019-05-07T15:10:52.520Z,46.40
2019-05-07T15:13:22.300Z,45.80
2019-05-07T15:15:52.475Z,48.60
2019-05-07T15:18:32.132Z,44.90
2019-05-07T15:21:01.859Z,45.40
2019-05-07T15:23:33.123Z,46.40
2019-05-07T15:26:04.826Z,48.30
2019-05-07T15:28:35.580Z,46.70
2019-05-07T15:31:06.827Z,46.30
2019-05-07T15:33:36.301Z,44.60
2019-05-07T15:36:06.594Z,46.70
2019-05-07T15:38:36.576Z,45.50
2019-05-07T15:41:06.140Z,45.60
2019-05-07T15:43:35.551Z,46.50
2019-05-07T15:46:05.260Z,44.70
2019-05-07T15:48:34.668Z,45.50
2019-05-07T15:51:04.282Z,47.10
2019-05-07T15:53:35.295Z,44.40
2019-05-07T15:56:04.662Z,48.60
2019-05-07T15:58:34.276Z,46.20
2019-05-07T16:01:03.772Z,47.20
2019-05-07T16:03:37.862Z,45.40
2019-05-07T16:06:07.223Z,46.60
2019-05-07T16:08:44.083Z,45.40
2019-05-07T16:11:13.539Z,46.90
2019-05-07T16:13:47.716Z,45.90
2019-05-07T16:16:17.073Z,46.30
2019-05-07T16:19:04.619Z,46.50
2019-05-07T16:21:34.139Z,45.90
2019-05-07T16:24:22.826Z,46.00
2019-05-07T16:26:52.446Z,45.20
2019-05-07T16:29:22.522Z,44.50
2019-05-07T16:31:52.219Z,45.30
2019-05-07T16:34:24.500Z,46.50
2019-05-07T16:36:52.828Z,46.60
2019-05-07T16:39:22.255Z,45.80
2019-05-07T16:41:52.627Z,45.60
2019-05-07T16:44:22.511Z,47.10
2019-05-07T16:46:53.479Z,46.70
2019-05-07T16:49:23.507Z,46.30
2019-05-07T16:51:52.939Z,47.00
2019-05-07T16:54:22.279Z,46.90
2019-05-07T16:57:12.038Z,46.90
2019-05-07T16:59:42.744Z,47.60
2019-05-07T17:02:13.903Z,46.00
2019-05-07T17:05:02.981Z,48.00
2019-05-07T17:07:32.284Z,48.20
2019-05-07T17:10:02.665Z,47.20
2019-05-07T17:12:32.509Z,47.30
2019-05-07T17:15:02.909Z,49.40
2019-05-07T17:17:32.459Z,48.30
2019-05-07T17:20:02.798Z,48.40
2019-05-07T17:22:32.537Z,49.80
2019-05-07T17:25:03.587Z,49.70
2019-05-07T17:27:33.146Z,49.40
2019-05-07T17:30:02.938Z,49.90
2019-05-07T17:32:32.552Z,51.70
2019-05-07T17:35:02.606Z,52.70
2019-05-07T17:37:32.040Z,52.50
2019-05-07T17:40:03.112Z,51.50
2019-05-07T17:42:32.909Z,52.40
2019-05-07T17:45:02.938Z,53.50
2019-05-07T17:47:32.809Z,53.50
2019-05-07T17:50:03.644Z,52.50
2019-05-07T17:52:33.004Z,53.40
2019-05-07T17:55:02.378Z,53.90
2019-05-07T17:57:33.515Z,54.50
2019-05-07T18:00:07.501Z,54.20
2019-05-07T18:02:54.775Z,54.90
2019-05-07T18:05:24.202Z,55.00
2019-05-07T18:07:53.627Z,54.50
2019-05-07T18:10:22.991Z,54.60
2019-05-07T18:12:53.712Z,55.10
2019-05-07T18:15:23.219Z,53.40
2019-05-07T18:17:56.623Z,53.50
2019-05-07T18:20:26.096Z,53.20
2019-05-07T18:22:55.436Z,53.60
2019-05-07T18:25:24.951Z,53.30
2019-05-07T18:27:54.374Z,54.20
2019-05-07T18:30:23.908Z,54.50
2019-05-07T18:32:54.982Z,54.80
2019-05-07T18:35:24.418Z,56.40
2019-05-07T18:37:53.838Z,56.70
2019-05-07T18:40:23.217Z,57.00
2019-05-07T18:42:52.718Z,57.70
2019-05-07T18:45:22.172Z,57.80
2019-05-07T18:47:51.710Z,59.00
2019-05-07T18:50:22.549Z,58.10
2019-05-07T18:52:52.515Z,58.10
2019-05-07T18:55:22.606Z,58.20
2019-05-07T18:57:52.463Z,58.50
2019-05-07T19:00:24.592Z,58.40
2019-05-07T19:02:54.004Z,58.60
2019-05-07T19:05:23.384Z,59.20
2019-05-07T19:08:04.643Z,59.20
2019-05-07T19:10:23.894Z,59.10
2019-05-07T19:12:53.799Z,59.40
2019-05-07T19:15:23.444Z,60.90
2019-05-07T19:17:53.027Z,62.10
2019-05-07T19:20:22.405Z,59.80
2019-05-07T19:22:52.005Z,59.50
2019-05-07T19:25:21.539Z,59.60
2019-05-07T19:27:52.635Z,59.70
2019-05-07T19:30:22.273Z,60.90
2019-05-07T19:32:52.220Z,61.30
2019-05-07T19:35:23.066Z,60.30
2019-05-07T19:37:52.929Z,60.60
2019-05-07T19:40:22.335Z,61.30
2019-05-07T19:42:52.216Z,59.90
2019-05-07T19:45:24.380Z,60.90
2019-05-07T19:47:52.941Z,60.70
2019-05-07T19:50:23.314Z,60.00
2019-05-07T19:52:53.210Z,59.30
2019-05-07T19:55:22.658Z,59.60
2019-05-07T19:57:53.681Z,59.50
2019-05-07T20:00:24.647Z,59.20
2019-05-07T20:02:55.657Z,59.50
2019-05-07T20:05:25.612Z,59.20
2019-05-07T20:07:59.456Z,59.40
2019-05-07T20:10:33.055Z,59.20
2019-05-07T20:13:03.089Z,58.90
2019-05-07T20:15:32.771Z,59.20
2019-05-07T20:18:03.120Z,58.90
2019-05-07T20:20:33.278Z,58.80
2019-05-07T20:23:02.735Z,59.10
2019-05-07T20:25:32.903Z,59.20
2019-05-07T20:28:02.783Z,59.20
2019-05-07T20:30:32.890Z,58.30
2019-05-07T20:33:03.113Z,58.90
2019-05-07T20:35:32.824Z,59.10
2019-05-07T20:38:02.956Z,59.20
2019-05-07T20:40:32.686Z,59.30
2019-05-07T20:43:02.114Z,59.30
2019-05-07T20:45:32.139Z,59.30
2019-05-07T20:48:02.507Z,59.20
2019-05-07T20:50:33.239Z,59.50
2019-05-07T20:53:02.812Z,59.50
2019-05-07T20:55:36.231Z,59.80
2019-05-07T20:58:05.679Z,59.70
2019-05-07T21:00:35.416Z,59.90
2019-05-07T21:03:20.124Z,59.90
2019-05-07T21:05:53.301Z,60.00
2019-05-07T21:08:23.123Z,59.80
2019-05-07T21:10:53.521Z,61.00
2019-05-07T21:13:30.924Z,61.00
2019-05-07T21:15:54.442Z,60.90
2019-05-07T21:18:23.803Z,61.90
2019-05-07T21:20:53.261Z,60.70
2019-05-07T21:23:23.332Z,60.70
2019-05-07T21:25:53.293Z,60.40
2019-05-07T21:28:22.963Z,60.50
2019-05-07T21:30:52.494Z,60.20
2019-05-07T21:33:22.954Z,61.00
2019-05-07T21:35:52.640Z,61.10
2019-05-07T21:38:22.508Z,61.10
2019-05-07T21:40:52.092Z,61.00
2019-05-07T21:43:22.143Z,61.10
2019-05-07T21:45:52.953Z,60.80
2019-05-07T21:48:22.606Z,61.30
2019-05-07T21:50:52.474Z,61.20
2019-05-07T21:53:26.495Z,61.40
2019-05-07T21:56:04.725Z,61.10
2019-05-07T21:58:32.964Z,61.30
2019-05-07T22:01:06.700Z,61.80
2019-05-07T22:03:36.174Z,61.60
2019-05-07T22:06:05.829Z,61.60
2019-05-07T22:08:35.275Z,62.20
2019-05-07T22:11:04.855Z,61.50
2019-05-07T22:13:34.293Z,61.80
2019-05-07T22:16:03.636Z,61.20
2019-05-07T22:18:34.023Z,61.90
2019-05-07T22:21:03.552Z,61.50
2019-05-07T22:23:32.905Z,60.80
2019-05-07T22:26:18.386Z,61.60
2019-05-07T22:28:34.675Z,61.90
2019-05-07T22:31:05.724Z,61.80
2019-05-07T22:33:52.814Z,62.00
2019-05-07T22:36:22.312Z,61.70
2019-05-07T22:38:52.719Z,61.70
2019-05-07T22:41:22.742Z,61.70
2019-05-07T22:43:52.106Z,61.70
2019-05-07T22:46:22.347Z,61.00
2019-05-07T22:48:51.883Z,60.80
2019-05-07T22:51:22.846Z,61.20
2019-05-07T22:53:52.380Z,61.10
2019-05-07T22:56:34.248Z,61.70
2019-05-07T22:58:54.412Z,61.30
2019-05-07T23:01:23.754Z,61.40
2019-05-07T23:03:54.033Z,61.80
2019-05-07T23:06:23.571Z,62.20
2019-05-07T23:08:53.137Z,62.00
2019-05-07T23:11:22.982Z,61.70
2019-05-07T23:13:54.780Z,62.00
2019-05-07T23:16:23.576Z,62.20
2019-05-07T23:18:52.937Z,61.90
2019-05-07T23:21:24.555Z,62.20
2019-05-07T23:23:53.351Z,62.10
2019-05-07T23:26:23.462Z,62.40
2019-05-07T23:28:52.998Z,62.30
2019-05-07T23:31:22.970Z,62.10
2019-05-07T23:33:52.503Z,62.70
2019-05-07T23:36:22.642Z,62.40
2019-05-07T23:38:52.358Z,62.20
2019-05-07T23:41:23.430Z,62.30
2019-05-07T23:44:12.502Z,61.80
2019-05-07T23:46:44.437Z,62.30
2019-05-07T23:49:12.902Z,62.40
2019-05-07T23:51:42.814Z,62.20
2019-05-07T23:54:12.367Z,62.70
2019-05-07T23:56:42.846Z,61.80
2019-05-07T23:59:14.920Z,61.70
